Wind EuroAirport

Messzeit Windrichtung Windgeschwindigkeit [Knoten] Rückenwind Nordpiste [Knoten] METAR
2019-10-22 14:00 - 3 - LFSB 221200Z VRB03KT 6000 BKN005 13/13 Q1023 NOSIG
2019-10-22 13:30 N 340°
(310°–20°)
4 3–4 LFSB 221130Z 34004KT 310V020 5000 BR BKN004 13/13 Q1024 TEMPO 7000 NSW BKN006
2019-10-22 13:00 N 350°
(320°–20°)
4 3–4 LFSB 221100Z 35004KT 320V020 4000 BR BKN003 13/13 Q1024 TEMPO 6000 NSW BKN006
2019-10-22 12:30 N 340° 5 5 LFSB 221030Z 34005KT 4000 BR OVC002 13/12 Q1024 TEMPO 6000 NSW OVC005
2019-10-22 12:00 N 350°
(310°–40°)
3 2–3 LFSB 221000Z 35003KT 310V040 2500 BR OVC002 13/12 Q1024 TEMPO 6000 NSW OVC005
2019-10-22 11:30 N 10°
(320°–70°)
3 0–3 LFSB 220930Z 01003KT 320V070 2500 BR OVC002 12/12 Q1024 TEMPO 4000 OVC004
2019-10-22 11:00 N 350°
(330°–30°)
7 4–7 LFSB 220900Z 35007KT 330V030 1200 R15/P2000 R33/P2000 BR OVC002 12/12 Q1024 TEMPO 3000 OVC004
2019-10-22 10:30 N 350° 6 6 LFSB 220830Z 35006KT 0900 R15/P2000 R33/1500U FG VV/// 12/12 Q1024 TEMPO 3000 BR OVC002
2019-10-22 10:00 N 350°
(320°–40°)
4 2–4 LFSB 220800Z 35004KT 320V040 0900 R15/1800D R33/1600D FG VV/// 12/12 Q1024 TEMPO 3000 BR OVC002
2019-10-22 09:30 N 340° 5 5 LFSB 220730Z 34005KT 0800 R15/1600N R33/1200U FG VV/// 12/12 Q1023 TEMPO 1200 BR
2019-10-22 09:00 NW 330°
(300°–360°)
4 3–4 LFSB 220700Z 33004KT 300V360 0550 R15/0800N R33/1100D FG VV/// 12/12 Q1023 NOSIG
2019-10-22 08:30 NW 310° 3 3 LFSB 220630Z 31003KT 0600 R15/0900N R33/0550N FG VV/// 12/12 Q1023 TEMPO 0400
2019-10-22 08:00 N 340° 3 3 LFSB 220600Z 34003KT 0500 R15/0800U R33/0600N FG VV/// 12/11 Q1023 TEMPO 0400
2019-10-22 07:30 NW 320° 5 5 LFSB 220530Z 32005KT 0700 R15/0900N R33/0750N FG VV/// 12/11 Q1023 TEMPO 0400
2019-10-22 07:00 NW 310° 2 2 LFSB 220500Z 31002KT 2000 BR SCT001 BKN003 11/11 Q1022 TEMPO 0400 FG VV///
2019-10-22 06:30 NW 300° 2 2 LFSB 220430Z 30002KT 1500 0800E R15/P2000 R33/1600D BCFG SCT001 BKN003 11/11 Q1022 TEMPO 0400 FG VV///
2019-10-22 06:00 - 0 - LFSB 220400Z 00000KT 1500 0900N R15/1600D R33/1100U PRFG SCT005 BKN019 BKN026 11/11 Q1023 TEMPO 0400 FG VV///
2019-10-22 05:30 - 3 - LFSB 220330Z VRB03KT 4500 BR BKN002 OVC025 11/11 Q1023 TEMPO 0400 FG VV///
2019-10-22 05:00 W 260° 3 1 LFSB 220300Z 26003KT 2000 BR BKN001 BKN002 11/11 Q1023 TEMPO 0400 FG VV///
2019-10-22 04:00 - 2 - LFSB 220200Z AUTO VRB02KT 6000 VV/// 11/11 Q1023 TEMPO 0400 FG
2019-10-22 03:30 W 290° 4 3 LFSB 220130Z AUTO 29004KT 6000 R33/1200U VV/// 11/11 Q1023 TEMPO 0400 FG
2019-10-22 03:00 NW 330° 4 4 LFSB 220100Z AUTO 33004KT 0550 0500 R15/0800N R33/0600N FG VV/// 10/10 Q1022 NOSIG
2019-10-22 02:30 NW 310° 2 2 LFSB 220030Z AUTO 31002KT 0500 0450 R15/0650N R33/0500N FG VV/// 11/11 Q1022 TEMPO 3000 BR OVC003
2019-10-22 02:00 NW 320° 3 3 LFSB 220000Z AUTO 32003KT 5000 2000 BR FEW001/// BKN110/// BKN130/// 12/11 Q1023 TEMPO OVC003
2019-10-22 01:30 NW 330°
(310°–10°)
4 3–4 LFSB 212330Z AUTO 33004KT 310V010 6000 FEW001/// BKN082/// OVC100/// 12/12 Q1023 TEMPO 3000 BR OVC003
2019-10-22 01:00 - 0 - LFSB 212300Z AUTO 00000KT 6000 SCT052/// BKN086/// OVC100/// 12/12 Q1023 TEMPO 4000 -RA BKN005
2019-10-22 00:30 - 0 - LFSB 212230Z AUTO 00000KT 7000 -RA OVC054/// 13/12 Q1023 TEMPO 4000 -RA BKN005
2019-10-22 00:00 - 2 - LFSB 212200Z VRB02KT 6000 -RA FEW003 BKN063 13/12 Q1023 TEMPO 4000 -RA BKN005
2019-10-21 23:30 NO 40° 2 1 LFSB 212130Z 04002KT 6000 -RA SCT003 BKN083 13/12 Q1023 TEMPO 4000 -RA BKN005
2019-10-21 23:00 SO 120°
(80°–150°)
5 - LFSB 212100Z 12005KT 080V150 5000 -RA BR FEW003 BKN066 13/13 Q1023 TEMPO 4000 -RA BKN005
2019-10-21 22:30 SO 140°
(110°–170°)
3 - LFSB 212030Z 14003KT 110V170 5000 -RA FEW006 BKN063 13/13 Q1023 TEMPO 4000 -RA BKN005
2019-10-21 22:00 SW 220° 3 - LFSB 212000Z 22003KT 6000 -RA FEW006 BKN063 12/12 Q1023 TEMPO 4000 -RA BKN005
2019-10-21 21:30 SW 230° 3 - LFSB 211930Z 23003KT 9999 -RA FEW006 BKN066 12/12 Q1023 NOSIG
2019-10-21 21:00 SW 210° 3 - LFSB 211900Z 21003KT 9999 -RA FEW006 BKN093 12/12 Q1022 NOSIG
2019-10-21 20:30 S 160° 2 - LFSB 211830Z 16002KT 9999 -RA FEW007 BKN100 12/12 Q1022 NOSIG
2019-10-21 20:00 S 160° 3 - LFSB 211800Z 16003KT 9999 -RA SCT043 BKN093 12/12 Q1022 NOSIG
2019-10-21 19:30 SO 150° 3 - LFSB 211730Z 15003KT 9999 -RA BKN043 BKN093 12/12 Q1022 NOSIG
2019-10-21 19:00 - 2 - LFSB 211700Z VRB02KT 7000 -RA NSC 13/12 Q1022 NOSIG
2019-10-21 18:30 - 0 - LFSB 211630Z 00000KT 7000 -RA FEW045 OVC073 13/12 Q1022 NOSIG
2019-10-21 18:00 - 3 - LFSB 211600Z VRB03KT 5000 RA FEW013 OVC045 13/12 Q1022 NOSIG
2019-10-21 17:00 NW 310° 3 3 LFSB 211500Z 31003KT 9000 -RA FEW015 OVC086 14/13 Q1021 NOSIG
2019-10-21 16:30 - 0 - LFSB 211430Z 00000KT 9000 -RA NSC 15/12 Q1021 NOSIG
2019-10-21 16:13 - 2 - LFSB 211413Z VRB02KT 9999 -RA FEW020 BKN044 15/12 Q1021 NOSIG
2019-10-21 16:00 - 2 - LFSB 211400Z VRB02KT 9999 FEW021 BKN044 15/12 Q1021 NOSIG
2019-10-21 15:30 - 0 - LFSB 211330Z 00000KT 9999 SCT019 BKN043 BKN073 15/12 Q1020 NOSIG
2019-10-21 15:00 - 3 - LFSB 211300Z VRB03KT 9999 FEW016 BKN043 BKN073 15/12 Q1020 NOSIG
2019-10-21 14:30 S 160° 1 - LFSB 211230Z 16001KT 9999 FEW012 BKN043 BKN056 15/12 Q1020 NOSIG